Time;durP1;ratioP1;P1;durP2;ratioP2;P2;SDS_P1;SDS_P2;PMS_P1;PMS_P2;Temp;Humidity;BMP_temperature;BMP_pressure;BME280_temperature;BME280_humidity;BME280_pressure;Samples;Min_cycle;Max_cycle;Signal;HPM_P1;HPM_P2
2024/04/16 00:02:19;;;;;;;7.90;3.50;;;;;;;13.09;62.11;99494.52;105086;1254;64513;-61
2024/04/16 00:04:47;;;;;;;7.50;3.90;;;;;;;13.11;61.82;99510.15;105154;1258;61377;-64
2024/04/16 00:07:15;;;;;;;7.30;4.20;;;;;;;13.04;61.67;99494.54;105235;1254;62508;-61
2024/04/16 00:09:42;;;;;;;9.20;4.30;;;;;;;12.92;61.99;99473.30;105080;1254;61295;-61
2024/04/16 00:12:10;;;;;;;10.40;4.60;;;;;;;12.87;62.43;99463.52;105296;1254;59645;-62
2024/04/16 00:14:56;;;;;;;5.90;1.80;;;;;;;12.86;62.70;99451.14;105134;1259;65636;-61
2024/04/16 00:17:27;;;;;;;9.20;4.70;;;;;;;12.85;62.94;99443.89;105150;1254;61355;-61
2024/04/16 00:19:55;;;;;;;9.00;4.80;;;;;;;12.83;63.02;99441.91;105148;1256;62534;-61
2024/04/16 00:22:23;;;;;;;6.90;4.10;;;;;;;12.86;62.97;99438.01;105144;1260;62558;-61
2024/04/16 00:24:50;;;;;;;7.80;2.60;;;;;;;12.92;62.83;99452.15;105085;1255;61420;-61
2024/04/16 00:27:18;;;;;;;7.50;4.50;;;;;;;12.95;62.58;99457.22;105129;1256;64455;-62
2024/04/16 00:29:45;;;;;;;9.90;4.40;;;;;;;12.95;62.68;99482.04;105115;1254;61296;-61
2024/04/16 00:32:12;;;;;;;7.80;4.20;;;;;;;12.93;62.70;99494.31;105111;1260;64876;-61
2024/04/16 00:34:40;;;;;;;8.10;3.70;;;;;;;12.89;62.66;99496.60;104958;1254;61344;-61
2024/04/16 00:37:08;;;;;;;7.80;3.30;;;;;;;12.86;62.39;99493.61;105179;1259;61405;-62
2024/04/16 00:39:35;;;;;;;7.10;3.50;;;;;;;12.83;62.31;99485.05;104985;1254;64531;-62
2024/04/16 00:42:03;;;;;;;9.00;3.50;;;;;;;12.81;62.22;99483.11;105113;1254;61365;-60
2024/04/16 00:44:30;;;;;;;4.40;1.40;;;;;;;12.80;62.49;99474.98;106484;1258;63849;-59
2024/04/16 00:46:58;;;;;;;8.20;3.90;;;;;;;12.80;62.70;99453.58;105074;1260;61347;-59
2024/04/16 00:49:26;;;;;;;7.60;3.60;;;;;;;12.80;62.94;99442.48;105840;1260;61233;-61
2024/04/16 00:51:54;;;;;;;7.60;3.70;;;;;;;12.80;63.02;99441.37;105767;1260;64463;-59
2024/04/16 00:54:21;;;;;;;8.50;4.20;;;;;;;12.87;63.16;99438.92;105873;1255;61509;-58
2024/04/16 00:56:49;;;;;;;8.20;4.10;;;;;;;12.93;63.25;99416.97;104786;1260;63775;-60
2024/04/16 00:59:16;;;;;;;7.50;4.50;;;;;;;12.99;63.29;99392.42;105108;1260;61368;-59
2024/04/16 01:01:44;;;;;;;8.20;4.00;;;;;;;13.02;63.50;99372.59;105067;1257;61548;-59
2024/04/16 01:04:12;;;;;;;9.20;4.30;;;;;;;13.01;63.43;99344.14;105361;1255;64537;-59
2024/04/16 01:06:39;;;;;;;5.70;2.10;;;;;;;13.00;63.61;99330.84;105079;1260;61211;-59
2024/04/16 01:09:08;;;;;;;7.40;4.40;;;;;;;13.01;63.85;99326.48;104981;1256;62457;-59
2024/04/16 01:11:36;;;;;;;9.00;4.10;;;;;;;13.01;63.69;99300.27;107167;1257;59859;-59
2024/04/16 01:14:03;;;;;;;7.50;4.60;;;;;;;13.03;63.60;99279.15;105479;1256;61301;-59
2024/04/16 01:16:31;;;;;;;7.20;4.50;;;;;;;13.06;63.34;99277.79;104968;1260;65791;-59
2024/04/16 01:19:01;;;;;;;6.90;3.80;;;;;;;13.08;63.21;99288.26;105710;1256;61862;-59
2024/04/16 01:21:29;;;;;;;7.60;4.10;;;;;;;13.09;63.30;99311.04;104951;1256;62479;-59
2024/04/16 01:23:56;;;;;;;6.80;3.80;;;;;;;13.09;63.36;99322.73;105567;1258;61324;-58
2024/04/16 01:26:24;;;;;;;8.50;3.70;;;;;;;13.07;63.27;99311.27;105009;1257;61267;-55
2024/04/16 01:28:51;;;;;;;7.30;3.80;;;;;;;13.06;63.21;99310.02;104961;1259;65756;-61
2024/04/16 01:31:18;;;;;;;7.20;3.30;;;;;;;13.08;63.06;99323.32;105021;1258;61551;-59
2024/04/16 01:33:46;;;;;;;6.10;3.10;;;;;;;13.10;62.96;99342.86;104872;1256;62457;-59
2024/04/16 01:36:14;;;;;;;7.30;2.90;;;;;;;13.10;62.80;99343.33;104970;1257;61454;-59
2024/04/16 01:38:41;;;;;;;8.90;4.30;;;;;;;13.14;62.76;99339.27;105071;1260;61423;-58
2024/04/16 01:41:11;;;;;;;7.60;3.60;;;;;;;13.18;62.59;99357.26;104948;1256;65757;-58
2024/04/16 01:43:39;;;;;;;8.60;3.60;;;;;;;13.20;62.44;99359.70;105492;1260;61322;-58
2024/04/16 01:46:07;;;;;;;4.10;1.90;;;;;;;13.19;62.18;99352.92;105149;1257;62455;-58
2024/04/16 01:48:35;;;;;;;8.20;3.70;;;;;;;13.16;61.99;99353.83;105181;1257;61240;-58
2024/04/16 01:51:03;;;;;;;8.50;3.20;;;;;;;13.11;61.86;99355.44;105454;1256;61265;-57
2024/04/16 01:53:30;;;;;;;10.60;3.70;;;;;;;13.10;61.89;99361.17;105013;1260;65728;-58
2024/04/16 01:56:01;;;;;;;8.90;3.30;;;;;;;13.10;61.91;99356.59;105077;1256;61428;-59
2024/04/16 01:58:28;;;;;;;5.90;3.00;;;;;;;13.09;62.07;99347.90;105077;1258;63840;-59
2024/04/16 02:00:59;;;;;;;5.20;1.90;;;;;;;13.09;62.26;99338.70;105095;1260;61296;-58
2024/04/16 02:03:28;;;;;;;7.70;3.60;;;;;;;13.11;62.56;99333.09;105720;1256;61356;-60
2024/04/16 02:05:57;;;;;;;7.20;4.00;;;;;;;13.13;62.82;99335.50;105079;1260;65891;-59
2024/04/16 02:08:25;;;;;;;6.60;3.70;;;;;;;13.14;62.86;99344.31;105118;1256;61408;-57
2024/04/16 02:10:54;;;;;;;6.60;3.90;;;;;;;13.14;62.79;99346.09;105042;1260;64143;-58
2024/04/16 02:13:22;;;;;;;8.50;4.10;;;;;;;13.18;62.67;99352.56;105119;1256;61464;-56
2024/04/16 02:15:50;;;;;;;6.80;4.00;;;;;;;13.22;62.57;99408.83;106017;1257;61355;-58
2024/04/16 02:18:17;;;;;;;8.10;4.20;;;;;;;13.19;62.25;99460.27;104993;1255;65733;-56
2024/04/16 02:20:45;;;;;;;10.80;4.30;;;;;;;13.03;62.44;99462.95;105278;1261;61244;-58
2024/04/16 02:23:12;;;;;;;9.00;4.10;;;;;;;12.92;62.81;99447.94;104966;1257;63793;-56
2024/04/16 02:25:47;;;;;;;8.10;4.90;;;;;;;12.86;63.25;99438.31;105037;1261;61379;-56
2024/04/16 02:28:14;;;;;;;6.80;4.00;;;;;;;12.87;63.51;99435.45;105226;1256;61333;-55
2024/04/16 02:30:43;;;;;;;12.40;6.90;;;;;;;12.92;63.49;99430.88;105396;1260;64476;-55
2024/04/16 02:33:14;;;;;;;19.10;12.20;;;;;;;12.95;63.31;99434.89;104970;1256;62356;-55
2024/04/16 02:35:41;;;;;;;13.10;7.10;;;;;;;12.95;63.10;99436.85;105392;1256;63756;-56
2024/04/16 02:38:09;;;;;;;7.90;4.40;;;;;;;12.93;63.39;99444.66;105374;1256;61396;-56
2024/04/16 02:40:37;;;;;;;7.00;4.40;;;;;;;12.95;63.59;99454.84;105508;1256;61283;-55
2024/04/16 02:43:04;;;;;;;7.00;3.70;;;;;;;12.95;63.33;99457.80;105046;1256;64449;-55
2024/04/16 02:45:32;;;;;;;7.20;3.90;;;;;;;12.85;63.01;99461.08;105589;1261;61182;-57
2024/04/16 02:47:59;;;;;;;9.00;3.90;;;;;;;12.68;62.90;99450.52;104943;1260;63707;-58
2024/04/16 02:50:28;;;;;;;9.70;4.10;;;;;;;12.60;63.04;99440.11;105670;1256;61386;-58
2024/04/16 02:52:55;;;;;;;8.70;3.60;;;;;;;12.60;63.18;99434.67;105080;1254;61295;-58
2024/04/16 02:55:23;;;;;;;8.40;3.80;;;;;;;12.65;63.39;99433.81;105164;1255;64433;-58
2024/04/16 02:57:50;;;;;;;7.70;4.10;;;;;;;12.70;63.65;99424.50;105045;1256;61394;-58
2024/04/16 03:00:18;;;;;;;8.80;4.30;;;;;;;12.74;63.65;99406.80;105121;1257;63685;-57
2024/04/16 03:02:46;;;;;;;8.20;3.90;;;;;;;12.76;63.75;99392.52;105017;1260;61235;-57
2024/04/16 03:05:13;;;;;;;7.90;3.90;;;;;;;12.80;63.83;99387.58;104987;1255;61284;-56
2024/04/16 03:07:45;;;;;;;8.90;4.20;;;;;;;12.87;63.90;99371.18;105087;1256;64524;-55
2024/04/16 03:10:16;;;;;;;8.70;3.70;;;;;;;12.94;63.76;99358.45;104999;1254;62100;-56
2024/04/16 03:12:44;;;;;;;7.40;3.80;;;;;;;13.00;63.73;99359.02;105254;1259;62527;-58
2024/04/16 03:15:12;;;;;;;6.60;3.80;;;;;;;13.05;63.95;99354.67;105145;1256;61275;-54
2024/04/16 03:17:40;;;;;;;6.90;4.20;;;;;;;13.09;64.01;99342.48;105156;1254;61313;-56
2024/04/16 03:20:08;;;;;;;8.00;4.40;;;;;;;13.09;63.85;99317.21;105039;1256;64674;-55
2024/04/16 03:22:36;;;;;;;8.40;3.90;;;;;;;13.07;63.85;99293.63;105172;1256;61452;-55
2024/04/16 03:25:04;;;;;;;7.50;4.40;;;;;;;13.09;63.69;99294.45;104872;1257;62484;-57
2024/04/16 03:27:32;;;;;;;6.50;4.10;;;;;;;13.14;63.64;99295.52;105659;1258;62746;-57
2024/04/16 03:29:59;;;;;;;8.70;4.00;;;;;;;13.19;63.65;99292.20;105000;1260;61268;-56
2024/04/16 03:32:27;;;;;;;6.40;3.60;;;;;;;13.20;63.60;99289.13;105096;1257;64548;-57
2024/04/16 03:34:55;;;;;;;7.10;3.80;;;;;;;13.19;63.83;99287.98;104957;1256;61378;-56
2024/04/16 03:37:22;;;;;;;8.20;3.70;;;;;;;13.17;63.79;99282.51;105096;1256;63831;-56
2024/04/16 03:39:50;;;;;;;6.90;3.20;;;;;;;13.15;63.75;99282.96;104765;1256;61363;-58
2024/04/16 03:42:17;;;;;;;7.20;3.40;;;;;;;13.14;63.55;99278.97;105069;1259;61190;-57
2024/04/16 03:44:45;;;;;;;14.30;3.10;;;;;;;13.17;63.50;99269.14;105085;1260;65862;-57
2024/04/16 03:47:12;;;;;;;8.00;3.40;;;;;;;13.22;63.36;99260.52;104970;1259;62457;-59
2024/04/16 03:49:40;;;;;;;6.50;3.50;;;;;;;13.24;63.11;99257.56;104893;1259;62587;-57
2024/04/16 03:52:08;;;;;;;7.80;3.80;;;;;;;13.20;63.09;99256.30;105386;1260;61372;-57
2024/04/16 03:54:35;;;;;;;9.30;3.70;;;;;;;13.16;63.15;99249.52;104725;1259;286841;-57
2024/04/16 04:08:53;;;;;;;8.40;4.10;;;;;;;13.06;63.53;99248.81;102646;1286;604216;-58
2024/04/16 04:11:21;;;;;;;7.60;3.40;;;;;;;13.64;62.00;99239.04;103970;1269;117036;-58
2024/04/16 04:13:48;;;;;;;9.20;3.60;;;;;;;13.67;62.02;99237.11;104222;1272;59412;-59
2024/04/16 04:16:17;;;;;;;7.40;3.60;;;;;;;13.67;62.11;99238.23;104155;1268;62860;-59
2024/04/16 04:18:44;;;;;;;8.10;4.00;;;;;;;13.64;62.18;99237.91;104082;1272;61552;-59
2024/04/16 04:21:12;;;;;;;7.10;3.50;;;;;;;13.60;62.38;99239.31;104158;1269;63717;-59
2024/04/16 04:23:39;;;;;;;8.80;4.30;;;;;;;13.57;62.49;99235.77;104228;1269;59766;-60
2024/04/16 04:26:07;;;;;;;6.50;3.10;;;;;;;13.58;62.32;99232.52;104057;1272;60718;-59
2024/04/16 04:28:34;;;;;;;7.60;3.60;;;;;;;13.59;62.22;99228.74;104128;1267;62925;-59
2024/04/16 04:31:18;;;;;;;7.70;3.40;;;;;;;13.57;62.12;99232.05;104145;1272;60375;-55
2024/04/16 04:33:46;;;;;;;5.90;3.20;;;;;;;13.53;62.21;99230.22;104722;1268;63789;-57
2024/04/16 04:36:14;;;;;;;6.50;2.90;;;;;;;13.50;62.33;99230.19;104343;1266;60925;-58
2024/04/16 04:38:41;;;;;;;6.90;3.40;;;;;;;13.47;62.50;99229.17;104324;1267;60329;-55
2024/04/16 04:41:11;;;;;;;8.40;3.60;;;;;;;13.42;62.53;99226.16;104267;1263;65660;-58
2024/04/16 04:43:39;;;;;;;7.30;3.30;;;;;;;13.41;62.44;99227.73;107418;1267;61584;-56
2024/04/16 04:46:10;;;;;;;5.70;3.20;;;;;;;13.39;62.43;99242.11;104205;1264;64435;-60
2024/04/16 04:48:39;;;;;;;5.60;3.20;;;;;;;13.41;62.69;99274.05;106326;1269;60877;-57
2024/04/16 04:51:07;;;;;;;7.30;3.70;;;;;;;13.44;62.78;99303.80;104958;1266;62986;-58
2024/04/16 04:53:35;;;;;;;7.60;3.50;;;;;;;13.46;63.01;99321.50;108316;1264;76117;-57
2024/04/16 04:56:03;;;;;;;7.00;4.00;;;;;;;13.48;62.69;99340.33;104960;1268;60433;-57
2024/04/16 04:58:31;;;;;;;8.30;3.40;;;;;;;13.46;62.51;99345.19;104551;1267;64037;-57
2024/04/16 05:00:59;;;;;;;6.40;3.30;;;;;;;13.45;62.41;99350.07;104994;1268;60572;-57
2024/04/16 05:03:28;;;;;;;6.70;3.30;;;;;;;13.45;62.49;99351.66;105165;1264;60567;-59
2024/04/16 05:05:55;;;;;;;5.80;3.40;;;;;;;13.42;62.59;99352.29;104357;1264;65102;-58
2024/04/16 05:08:24;;;;;;;7.70;3.40;;;;;;;13.39;62.61;99350.66;104498;1269;60902;-59
2024/04/16 05:10:52;;;;;;;7.20;3.20;;;;;;;13.39;62.81;99342.98;104650;1264;74935;-56
2024/04/16 05:13:19;;;;;;;9.10;4.60;;;;;;;13.38;62.86;99339.54;104472;1266;60475;-57
2024/04/16 05:15:47;;;;;;;7.20;3.90;;;;;;;13.37;62.81;99347.02;104475;1264;62360;-58
2024/04/16 05:18:15;;;;;;;6.70;3.60;;;;;;;13.40;62.91;99349.85;104520;1264;67199;-58
2024/04/16 05:20:49;;;;;;;7.30;3.50;;;;;;;13.45;62.79;99351.77;104617;1266;63741;-58
2024/04/16 05:23:16;;;;;;;8.00;4.70;;;;;;;13.50;62.63;99346.50;104403;1266;74939;-57
2024/04/16 05:25:53;;;;;;;8.70;5.00;;;;;;;13.52;62.72;99337.48;104632;1268;62153;-56
2024/04/16 05:28:22;;;;;;;13.10;4.50;;;;;;;13.54;62.67;99328.30;105353;1266;60337;-58
2024/04/16 05:30:50;;;;;;;8.70;5.20;;;;;;;13.55;62.61;99328.17;104380;1266;76042;-58
2024/04/16 05:33:17;;;;;;;8.40;4.60;;;;;;;13.54;62.65;99316.31;104464;1266;63721;-59
2024/04/16 05:35:45;;;;;;;8.10;4.70;;;;;;;13.58;62.53;99300.02;104409;1266;74894;-58
2024/04/16 05:38:14;;;;;;;8.40;4.70;;;;;;;13.62;62.51;99294.94;104647;1264;62561;-60
2024/04/16 05:40:42;;;;;;;8.70;4.80;;;;;;;13.70;62.64;99290.27;104663;1264;60975;-57
2024/04/16 05:43:10;;;;;;;8.90;5.20;;;;;;;13.74;62.70;99286.66;104398;1266;76100;-61
2024/04/16 05:45:37;;;;;;;8.80;5.40;;;;;;;13.78;62.49;99282.45;104851;1265;61865;-58
2024/04/16 05:48:05;;;;;;;9.80;4.70;;;;;;;13.81;62.21;99279.48;104587;1266;65852;-60
2024/04/16 05:50:33;;;;;;;8.40;5.20;;;;;;;13.83;62.41;99287.24;104986;1266;60585;-59
2024/04/16 05:53:01;;;;;;;10.00;5.30;;;;;;;13.87;62.36;99294.99;105183;1268;60646;-58
2024/04/16 05:55:28;;;;;;;10.80;6.00;;;;;;;13.95;62.42;99301.70;104572;1263;63783;-59
2024/04/16 05:57:56;;;;;;;8.70;5.60;;;;;;;14.02;62.46;99305.16;105337;1267;62243;-60
2024/04/16 06:00:24;;;;;;;10.10;6.00;;;;;;;14.08;62.30;99312.27;104420;1266;74842;-59
2024/04/16 06:02:51;;;;;;;7.80;5.00;;;;;;;14.10;62.34;99308.54;104499;1264;59978;-59
2024/04/16 06:05:19;;;;;;;8.80;5.60;;;;;;;14.09;62.38;99303.33;104256;1266;60565;-59
2024/04/16 06:07:46;;;;;;;7.90;5.30;;;;;;;14.09;62.44;99301.69;104308;1268;75956;-61
2024/04/16 06:10:14;;;;;;;7.80;5.10;;;;;;;14.16;62.36;99307.18;104612;1268;61604;-68
2024/04/16 06:12:41;;;;;;;10.20;5.80;;;;;;;14.29;62.29;99306.69;104282;1266;66030;-60
2024/04/16 06:15:09;;;;;;;8.10;5.30;;;;;;;14.42;62.36;99305.50;104401;1264;60461;-59
2024/04/16 06:17:37;;;;;;;11.50;6.10;;;;;;;14.50;62.35;99310.34;104253;1264;60693;-64
2024/04/16 06:20:07;;;;;;;10.10;6.40;;;;;;;14.57;62.17;99312.11;104479;1269;76052;-64
2024/04/16 06:22:37;;;;;;;10.50;6.20;;;;;;;14.61;62.11;99316.01;104816;1265;72153;-65
2024/04/16 06:25:06;;;;;;;9.20;6.00;;;;;;;14.63;61.79;99306.76;104938;1267;64773;-59
2024/04/16 06:27:34;;;;;;;10.80;5.90;;;;;;;14.65;61.64;99305.13;105218;1266;60473;-58
2024/04/16 06:30:02;;;;;;;9.10;6.00;;;;;;;14.70;61.78;99305.45;104867;1266;60553;-67
2024/04/16 06:32:29;;;;;;;8.90;5.90;;;;;;;14.81;61.44;99310.64;105451;1266;76414;-68
2024/04/16 06:34:57;;;;;;;12.40;6.30;;;;;;;14.86;61.36;99313.19;104197;1263;72943;-68
2024/04/16 06:37:25;;;;;;;9.30;6.50;;;;;;;14.90;61.40;99306.41;104312;1264;64736;-67
2024/04/16 06:39:52;;;;;;;14.10;7.60;;;;;;;14.93;61.34;99296.71;104412;1266;61974;-65
2024/04/16 06:42:20;;;;;;;10.20;7.20;;;;;;;14.96;61.67;99288.91;104600;1266;62140;-63
2024/04/16 06:44:47;;;;;;;9.50;6.40;;;;;;;15.00;61.85;99283.11;104526;1266;64097;-65
2024/04/16 06:47:15;;;;;;;12.10;7.30;;;;;;;15.12;61.93;99281.83;104801;1266;64313;-66
2024/04/16 06:49:44;;;;;;;9.60;6.30;;;;;;;15.24;61.90;99269.23;104342;1265;64547;-68
2024/04/16 06:52:12;;;;;;;10.40;6.70;;;;;;;15.32;61.63;99265.77;104321;1269;60394;-64
2024/04/16 06:54:39;;;;;;;13.50;7.00;;;;;;;15.41;61.57;99263.85;104725;1266;62208;-64
2024/04/16 06:57:07;;;;;;;11.60;7.30;;;;;;;15.42;61.45;99260.73;104439;1272;76117;-67
2024/04/16 06:59:34;;;;;;;13.10;7.40;;;;;;;15.41;61.28;99262.30;104953;1266;73449;-59
2024/04/16 07:02:03;;;;;;;11.00;6.90;;;;;;;15.40;61.23;99261.81;104888;1266;64093;-60
2024/04/16 07:04:30;;;;;;;12.30;7.60;;;;;;;15.46;61.32;99266.85;105851;1266;61095;-69
2024/04/16 07:06:58;;;;;;;10.60;7.20;;;;;;;15.53;61.07;99261.37;108705;1259;58614;-69
2024/04/16 07:09:29;;;;;;;11.40;7.40;;;;;;;15.63;60.88;99268.53;108706;1259;67286;-68
2024/04/16 07:11:57;;;;;;;12.00;7.20;;;;;;;15.76;60.90;99268.10;108759;1260;60625;-67
2024/04/16 07:14:24;;;;;;;10.60;7.10;;;;;;;15.86;60.77;99258.37;106784;1259;66407;-69
2024/04/16 07:16:53;;;;;;;11.30;7.40;;;;;;;15.88;60.63;99251.98;108712;1259;59132;-68
2024/04/16 07:19:20;;;;;;;12.50;8.30;;;;;;;15.93;60.53;99251.20;108717;1260;61372;-63
2024/04/16 07:21:48;;;;;;;10.70;7.70;;;;;;;15.97;60.20;99265.70;108247;1260;63870;-66
2024/04/16 07:24:15;;;;;;;12.30;7.60;;;;;;;15.95;59.73;99277.42;104995;1259;61591;-68
2024/04/16 07:26:43;;;;;;;11.20;7.60;;;;;;;15.91;59.38;99283.83;104708;1259;75047;-67
2024/04/16 07:29:11;;;;;;;9.70;7.10;;;;;;;15.92;59.70;99277.67;105012;1259;60587;-69
2024/04/16 07:31:40;;;;;;;12.00;7.20;;;;;;;15.98;59.83;99279.98;104811;1263;62265;-62
2024/04/16 07:34:15;;;;;;;11.90;8.00;;;;;;;16.05;60.13;99273.50;106180;1259;67176;-69
2024/04/16 07:36:43;;;;;;;11.20;7.80;;;;;;;16.16;60.38;99264.05;104713;1260;61847;-69
2024/04/16 07:39:11;;;;;;;12.10;7.50;;;;;;;16.24;60.16;99260.22;104651;1259;66359;-67
2024/04/16 07:41:38;;;;;;;13.10;8.40;;;;;;;16.30;60.36;99260.34;104773;1259;60549;-62
2024/04/16 07:44:06;;;;;;;11.40;8.20;;;;;;;16.33;60.43;99260.35;104882;1265;62250;-69
2024/04/16 07:46:33;;;;;;;10.90;7.40;;;;;;;16.35;60.04;99257.98;104905;1264;76535;-68
2024/04/16 07:49:01;;;;;;;11.10;7.00;;;;;;;16.43;59.96;99255.77;106166;1260;73101;-69
2024/04/16 07:51:29;;;;;;;10.00;6.70;;;;;;;16.51;59.81;99240.11;105520;1263;65715;-69
2024/04/16 07:53:56;;;;;;;12.60;7.60;;;;;;;16.55;59.58;99229.37;105747;1265;60544;-66
2024/04/16 07:56:24;;;;;;;10.10;7.20;;;;;;;16.54;59.31;99238.96;105211;1259;62145;-67
2024/04/16 07:58:51;;;;;;;12.60;7.10;;;;;;;16.54;59.26;99245.86;105204;1262;76020;-69
2024/04/16 08:01:19;;;;;;;11.20;7.30;;;;;;;16.60;59.51;99247.48;105678;1260;61926;-62
2024/04/16 08:03:47;;;;;;;11.70;8.00;;;;;;;16.66;59.36;99247.11;105760;1260;64093;-62
2024/04/16 08:06:15;;;;;;;11.40;6.90;;;;;;;16.70;59.03;99248.15;104874;1262;60857;-69
2024/04/16 08:08:43;;;;;;;10.70;6.60;;;;;;;16.80;59.15;99253.64;105398;1259;60868;-58
2024/04/16 08:11:12;;;;;;;12.10;7.50;;;;;;;16.92;58.99;99250.24;104741;1265;65887;-61
2024/04/16 08:13:40;;;;;;;11.70;7.20;;;;;;;17.03;58.81;99250.52;105077;1260;63721;-66
2024/04/16 08:16:08;;;;;;;11.20;7.00;;;;;;;17.16;59.07;99251.13;105341;1263;74907;-58
2024/04/16 08:18:36;;;;;;;11.00;7.20;;;;;;;17.26;58.82;99246.33;104989;1260;61356;-65
2024/04/16 08:21:04;;;;;;;11.30;8.10;;;;;;;17.31;58.27;99242.02;105030;1260;61918;-67
2024/04/16 08:23:32;;;;;;;12.00;7.40;;;;;;;17.32;58.24;99246.70;105741;1260;67729;-72
2024/04/16 08:26:03;;;;;;;11.00;7.70;;;;;;;17.33;57.77;99242.86;105797;1265;61240;-68
2024/04/16 08:28:36;;;;;;;11.60;6.80;;;;;;;17.33;57.82;99242.29;105317;1260;64929;-69
2024/04/16 08:31:04;;;;;;;9.90;6.40;;;;;;;17.36;57.94;99244.77;105466;1265;61242;-62
2024/04/16 08:33:32;;;;;;;9.10;5.60;;;;;;;17.49;58.10;99246.02;104737;1265;62199;-62
2024/04/16 08:36:00;;;;;;;8.60;5.60;;;;;;;17.59;57.82;99245.91;106240;1260;68111;-64
2024/04/16 08:38:28;;;;;;;9.50;6.50;;;;;;;17.71;57.93;99244.13;105662;1265;72627;-65
2024/04/16 08:40:56;;;;;;;9.20;7.00;;;;;;;17.77;57.89;99240.14;105655;1260;74782;-55
2024/04/16 08:43:24;;;;;;;10.60;6.40;;;;;;;17.79;57.59;99237.35;107025;1262;61427;-66
2024/04/16 08:45:52;;;;;;;13.90;6.40;;;;;;;17.83;57.67;99234.53;106309;1259;62060;-63
2024/04/16 08:48:20;;;;;;;9.70;6.20;;;;;;;17.90;57.52;99227.42;105692;1265;76760;-61
2024/04/16 08:50:47;;;;;;;9.70;5.90;;;;;;;17.98;57.68;99225.63;104737;1260;61856;-65
2024/04/16 08:53:16;;;;;;;14.00;7.10;;;;;;;18.08;57.94;99223.48;105054;1262;72053;-68
2024/04/16 08:55:43;;;;;;;12.00;6.60;;;;;;;18.20;57.81;99219.18;105781;1263;62698;-63
2024/04/16 08:58:11;;;;;;;8.20;5.70;;;;;;;18.30;57.23;99218.66;105783;1260;61193;-65
2024/04/16 09:00:38;;;;;;;9.80;6.60;;;;;;;18.37;57.35;99217.29;105772;1261;68288;-62
2024/04/16 09:03:06;;;;;;;10.40;6.30;;;;;;;18.45;57.51;99214.81;105748;1260;61263;-65
2024/04/16 09:05:33;;;;;;;10.90;6.00;;;;;;;18.53;57.63;99217.10;105664;1265;66187;-60
2024/04/16 09:08:01;;;;;;;10.70;6.50;;;;;;;18.63;57.50;99216.17;104671;1263;61250;-67
2024/04/16 09:10:28;;;;;;;12.20;7.10;;;;;;;18.74;57.25;99215.40;104949;1260;61458;-58
2024/04/16 09:12:56;;;;;;;10.30;6.30;;;;;;;18.84;56.95;99205.42;104749;1264;76783;-60
2024/04/16 09:15:24;;;;;;;11.30;6.00;;;;;;;18.96;56.63;99205.80;104803;1263;72108;-63
2024/04/16 09:17:52;;;;;;;9.40;5.20;;;;;;;19.08;56.15;99199.87;105007;1260;64331;-65
2024/04/16 09:20:24;;;;;;;10.00;5.30;;;;;;;19.11;55.14;99193.06;105781;1260;61295;-66
2024/04/16 09:22:53;;;;;;;8.00;4.50;;;;;;;19.14;55.40;99192.60;105693;1260;62185;-63
2024/04/16 09:25:22;;;;;;;10.40;4.60;;;;;;;19.19;55.21;99194.45;105751;1265;67048;-60
2024/04/16 09:27:52;;;;;;;9.80;6.70;;;;;;;19.26;54.66;99197.67;104736;1263;72677;-58
2024/04/16 09:30:21;;;;;;;11.40;5.10;;;;;;;19.28;54.39;99203.00;104862;1263;74975;-59
2024/04/16 09:33:00;;;;;;;9.00;4.70;;;;;;;19.32;54.07;99199.50;104758;1259;61439;-61
2024/04/16 09:35:29;;;;;;;7.90;4.00;;;;;;;19.35;54.09;99193.08;107248;1263;62577;-58
2024/04/16 09:38:07;;;;;;;8.60;4.10;;;;;;;19.38;54.31;99192.23;105631;1260;76859;-66
2024/04/16 09:40:35;;;;;;;9.00;3.80;;;;;;;19.55;54.50;99191.23;105291;1265;73945;-62
2024/04/16 09:43:06;;;;;;;14.50;4.80;;;;;;;19.73;54.13;99185.92;105187;1260;65296;-59
2024/04/16 09:45:35;;;;;;;9.40;4.40;;;;;;;19.88;53.87;99184.35;108568;1260;62210;-61
2024/04/16 09:48:04;;;;;;;7.60;3.80;;;;;;;19.97;53.45;99187.17;105523;1260;61461;-63
2024/04/16 09:50:32;;;;;;;7.80;3.60;;;;;;;20.02;53.19;99189.33;107847;1260;68044;-60
2024/04/16 09:53:21;;;;;;;10.50;4.40;;;;;;;19.99;52.43;99185.64;104675;1260;72538;-56
2024/04/16 09:55:48;;;;;;;7.30;4.00;;;;;;;19.94;52.35;99184.29;104662;1260;62923;-60
2024/04/16 09:58:17;;;;;;;8.40;4.10;;;;;;;19.83;52.24;99182.37;105282;1260;61354;-68
2024/04/16 10:00:45;;;;;;;8.30;3.90;;;;;;;19.73;52.79;99187.14;105753;1264;61262;-70
2024/04/16 10:03:13;;;;;;;9.80;4.10;;;;;;;19.71;53.29;99187.19;105699;1261;74937;-65
2024/04/16 10:05:42;;;;;;;8.10;4.10;;;;;;;19.71;53.05;99188.30;105610;1265;62330;-69
2024/04/16 10:08:09;;;;;;;8.30;4.20;;;;;;;19.70;52.80;99186.48;105804;1262;74941;-65
2024/04/16 10:10:41;;;;;;;7.60;4.10;;;;;;;19.69;53.04;99184.32;105608;1260;61257;-71
2024/04/16 10:13:08;;;;;;;10.00;4.20;;;;;;;19.73;53.62;99179.71;105655;1260;61125;-69
2024/04/16 10:15:36;;;;;;;10.00;4.20;;;;;;;19.78;53.51;99173.27;105664;1265;66726;-67
2024/04/16 10:18:04;;;;;;;8.80;4.50;;;;;;;19.90;54.06;99164.92;105680;1264;62514;-69
2024/04/16 10:20:34;;;;;;;9.00;4.60;;;;;;;20.05;53.47;99165.81;105675;1260;65870;-63
2024/04/16 10:23:02;;;;;;;9.00;4.50;;;;;;;20.11;52.42;99167.55;105648;1265;61329;-72
2024/04/16 10:25:32;;;;;;;7.70;4.00;;;;;;;20.12;52.37;99165.73;105662;1261;59698;-71
2024/04/16 10:28:04;;;;;;;8.30;4.30;;;;;;;20.18;52.45;99163.69;106129;1265;75664;-67
2024/04/16 10:30:35;;;;;;;10.30;5.80;;;;;;;20.32;52.31;99168.11;106702;1262;71894;-64
2024/04/16 10:33:04;;;;;;;8.40;4.90;;;;;;;20.38;51.55;99171.94;108773;1260;74858;-65
2024/04/16 10:35:33;;;;;;;14.90;6.20;;;;;;;20.39;51.41;99167.60;107943;1264;61241;-65
2024/04/16 10:38:04;;;;;;;10.20;5.30;;;;;;;20.44;51.23;99160.96;106145;1263;61414;-69
2024/04/16 10:40:38;;;;;;;9.30;5.30;;;;;;;20.61;51.50;99165.48;104768;1263;66573;-64
2024/04/16 10:43:05;;;;;;;10.90;5.40;;;;;;;20.82;50.20;99163.92;105232;1260;72294;-60
2024/04/16 10:45:35;;;;;;;9.60;6.10;;;;;;;20.93;50.10;99165.96;106875;1266;65981;-59
2024/04/16 10:48:04;;;;;;;11.20;6.20;;;;;;;21.03;50.03;99162.58;105001;1260;62277;-60
2024/04/16 10:50:37;;;;;;;11.40;6.30;;;;;;;21.12;50.66;99156.97;105567;1260;61405;-61
2024/04/16 10:53:18;;;;;;;11.40;6.20;;;;;;;21.25;50.05;99161.85;105407;1263;65809;-59
2024/04/16 10:55:46;;;;;;;8.90;5.90;;;;;;;21.35;49.41;99158.70;105281;1261;61867;-58
2024/04/16 10:58:20;;;;;;;12.10;6.40;;;;;;;21.45;49.49;99156.45;105187;1259;66144;-56
2024/04/16 11:00:54;;;;;;;9.10;6.00;;;;;;;21.57;48.99;99149.79;105463;1263;61273;-63
2024/04/16 11:03:22;;;;;;;8.80;6.00;;;;;;;21.66;48.58;99147.89;106016;1256;61452;-62
2024/04/16 11:05:50;;;;;;;10.10;6.20;;;;;;;21.76;48.82;99149.98;106025;1262;64896;-64
2024/04/16 11:08:17;;;;;;;11.60;6.40;;;;;;;21.86;47.79;99150.69;106060;1262;72718;-67
2024/04/16 11:10:49;;;;;;;11.20;6.40;;;;;;;21.86;47.03;99144.30;105184;1262;73297;-62
2024/04/16 11:13:18;;;;;;;9.90;6.20;;;;;;;21.83;46.70;99138.56;108782;1257;59115;-62
2024/04/16 11:15:46;;;;;;;11.30;6.50;;;;;;;21.85;47.14;99131.75;108916;1261;59212;-63
2024/04/16 11:18:14;;;;;;;7.80;5.80;;;;;;;21.89;47.18;99125.77;107516;1257;75691;-69
2024/04/16 11:20:42;;;;;;;11.70;6.70;;;;;;;21.93;47.08;99121.46;105799;1259;63775;-61
2024/04/16 11:23:09;;;;;;;10.50;6.50;;;;;;;21.95;46.94;99122.47;104932;1260;63868;-63
2024/04/16 11:25:43;;;;;;;10.40;6.60;;;;;;;21.92;46.88;99114.64;105115;1260;61358;-63
2024/04/16 11:28:10;;;;;;;10.30;6.60;;;;;;;21.95;47.62;99106.61;106041;1259;61177;-58
2024/04/16 11:30:41;;;;;;;10.30;6.20;;;;;;;22.07;47.54;99102.17;105004;1262;76887;-59
2024/04/16 11:33:08;;;;;;;9.30;6.30;;;;;;;22.14;47.31;99099.81;105300;1261;61967;-60
2024/04/16 11:35:49;;;;;;;10.60;6.70;;;;;;;22.17;47.77;99091.59;105028;1258;62536;-64
2024/04/16 11:38:20;;;;;;;14.00;6.40;;;;;;;22.18;47.54;99082.08;105340;1262;61529;-63
2024/04/16 11:40:47;;;;;;;11.10;6.70;;;;;;;22.16;47.74;99079.09;104980;1261;61301;-61